Cairnbrook, PA

9:06 PM EDT on October 16, 2019 (GMT -0400)
Cairnbrook | | Change Station
Active Advisory: Wind Advisory

Elev 2198 ft 40.12 °N, 78.81 °W | Updated 15 seconds ago

Overcast
Overcast
40.6 °F
Feels Like 41 °F
N
2.2
Wind Variable Wind from West
Gusts 3.4 mph

Today
High -- | Low -- °F
--% Chance of Precip.
Yesterday
High -- | Low -- °F
Precip. -- in
Pressure 29.66 in
Visibility 5.0 miles
Clouds Mostly Cloudy 900 ft
Overcast 1300 ft
Windchill 41 °F
Dew Point 39 °F
Humidity 93%
Rainfall 0.20 in
Snow Depth Not available.
7:26 AM 6:34 PM
Waning Gibbous, 91% visible
METAR KJST 170054Z AUTO 26013KT 5SM -RA BR BKN009 OVC013 05/03 A2964 RMK AO2 PK WND 25030/2357 CIG 004V011 SLP044 P0003 T00500033
Pressure 29.66 in
Visibility 5.0 miles
Clouds Mostly Cloudy 900 ft
Overcast 1300 ft
Windchill 41 °F
Dew Point 39 °F
Humidity 93%
Rainfall 0.20 in
Snow Depth Not available.
7:26 AM 6:34 PM
Waning Gibbous, 91% visible
METAR KJST 170054Z AUTO 26013KT 5SM -RA BR BKN009 OVC013 05/03 A2964 RMK AO2 PK WND 25030/2357 CIG 004V011 SLP044 P0003 T00500033

Get Your Daily Forecast Email!

Thanks for signing up!

Be on the lookout for a verification email in your inbox.

You'll start receiving severe weather alerts in your inbox..

×

10-Day Weather Forecast

Almanac

Astronomy

Oct. 16, 2019 Rise Set
Actual Time
Civil Twilight
Nautical Twilight
Astronomical Twilight
Moon
Length of Visible Light
Length of Day
Tomorrow will be .
, % of the Moon is Illuminated

Today's Extremes

State Highs State Lows

Community

WunderPhotos

Category 6

Welcome to Category 6. This is the collective home for Weather Underground's featured writeups by Dr. Jeff Masters (right), Bob Henson (left), Chris Burt, and other regular contributors.

Nearby

Air Quality

  Air Quality AQ Index Pollutant
Not available.

Snow Depth

Station Depth Elevation

Earthquake Activity

City Distance Mag. Time & Date
Minimum magnitude displayed is 2.5.

Coastal Water Temperatures

Place Temperature

Stations

Nearby Weather Stations

Station Location Temp. Windchill Dew Point Humidity Wind Precip. Elev Updated Type
                   

Watches & Warnings

Wind Advisory
Issued: 3:42 PM EDT Oct. 16, 2019 – National Weather Service

... Wind Advisory remains in effect from 8 am to 8 PM EDT
Thursday...

* what... west winds 15 to 25 mph with gusts up to 45 mph
expected.

* Where... Somerset, Bedford, Fulton, Huntingdon, Blair and
Cambria counties.

* When... from 8 am to 8 PM EDT Thursday.

* Impacts... gusty winds could blow around unsecured objects.
Tree limbs could be blown down and a few power outages may
result.

Precautionary/preparedness actions...

Use extra caution when driving, especially if operating a high
profile vehicle. Secure outdoor objects.

For high wind safety information, visit weather.Gov/wind.

The latest forecast information can be found on the
NWS State College facebook Page and twitter @nwsstatecollege,
or on the web at weather.Gov/ctp.